createdAt,value
2018-11-29T00:00:09.861Z,8.14
2018-11-29T00:01:09.836Z,8.11
2018-11-29T00:02:09.810Z,8.03
2018-11-29T00:03:09.787Z,8.09
2018-11-29T00:04:09.763Z,8.11
2018-11-29T00:05:09.739Z,8.13
2018-11-29T00:06:09.723Z,8.14
2018-11-29T00:07:09.691Z,8.11
2018-11-29T00:08:09.687Z,8.05
2018-11-29T00:09:09.648Z,8.08
2018-11-29T00:10:09.619Z,8.08
2018-11-29T00:11:09.597Z,8.09
2018-11-29T00:12:09.582Z,8.16
2018-11-29T00:13:09.548Z,8.20
2018-11-29T00:14:09.525Z,8.09
2018-11-29T00:15:09.500Z,8.21
2018-11-29T00:16:09.477Z,8.23
2018-11-29T00:17:09.454Z,8.26
2018-11-29T00:18:09.442Z,8.08
2018-11-29T00:19:09.419Z,8.09
2018-11-29T00:20:09.383Z,8.24
2018-11-29T00:21:09.361Z,8.16
2018-11-29T00:22:09.333Z,8.21
2018-11-29T00:23:09.311Z,8.24
2018-11-29T00:24:09.286Z,8.20
2018-11-29T00:25:09.265Z,8.21
2018-11-29T00:26:09.237Z,8.23
2018-11-29T00:27:09.215Z,8.18
2018-11-29T00:28:09.193Z,8.27
2018-11-29T00:29:09.169Z,8.35
2018-11-29T00:30:09.145Z,8.18
2018-11-29T00:31:09.119Z,8.31
2018-11-29T00:32:09.102Z,8.26
2018-11-29T00:33:09.073Z,8.27
2018-11-29T00:34:09.048Z,8.27
2018-11-29T00:35:09.027Z,8.26
2018-11-29T00:36:09.001Z,8.32
2018-11-29T00:37:08.979Z,8.28
2018-11-29T00:38:08.953Z,8.38
2018-11-29T00:39:08.929Z,8.36
2018-11-29T00:40:08.906Z,8.42
2018-11-29T00:41:08.884Z,8.46
2018-11-29T00:42:08.857Z,8.45
2018-11-29T00:43:08.834Z,8.39
2018-11-29T00:44:08.812Z,8.45
2018-11-29T00:45:08.789Z,8.41
2018-11-29T00:46:08.763Z,8.46
2018-11-29T00:47:08.740Z,8.50
2018-11-29T00:48:08.716Z,8.50
2018-11-29T00:49:08.692Z,8.46
2018-11-29T00:50:08.668Z,8.52
2018-11-29T00:51:08.645Z,8.42
2018-11-29T00:52:08.620Z,8.49
2018-11-29T00:53:08.597Z,8.56
2018-11-29T00:54:08.573Z,8.46
2018-11-29T00:55:08.554Z,8.53
2018-11-29T00:56:08.526Z,8.56
2018-11-29T00:57:08.502Z,8.60
2018-11-29T00:58:08.479Z,8.60
2018-11-29T00:59:08.454Z,8.56
2018-11-29T01:00:08.431Z,8.50
2018-11-29T01:01:08.408Z,8.59
2018-11-29T01:02:08.384Z,8.52
2018-11-29T01:03:08.360Z,8.57
2018-11-29T01:04:08.337Z,8.61
2018-11-29T01:05:08.314Z,8.59
2018-11-29T01:06:08.289Z,8.57
2018-11-29T01:07:08.265Z,8.60
2018-11-29T01:08:08.240Z,8.63
2018-11-29T01:09:08.217Z,8.59
2018-11-29T01:10:08.217Z,8.63
2018-11-29T01:11:08.185Z,8.61
2018-11-29T01:12:08.148Z,8.53
2018-11-29T01:13:08.125Z,8.61
2018-11-29T01:14:08.102Z,8.69
2018-11-29T01:15:08.089Z,8.60
2018-11-29T01:16:08.051Z,8.57
2018-11-29T01:17:08.028Z,8.64
2018-11-29T01:18:08.004Z,8.60
2018-11-29T01:19:07.992Z,8.56
2018-11-29T01:20:07.960Z,8.57
2018-11-29T01:21:07.935Z,8.57
2018-11-29T01:22:07.910Z,8.54
2018-11-29T01:23:07.909Z,8.56
2018-11-29T01:24:07.862Z,8.56
2018-11-29T01:25:07.844Z,8.56
2018-11-29T01:26:07.816Z,8.57
2018-11-29T01:27:07.796Z,8.56
2018-11-29T01:28:07.771Z,8.61
2018-11-29T01:29:07.746Z,8.64
2018-11-29T01:30:07.723Z,8.64
2018-11-29T01:31:07.697Z,8.57
2018-11-29T01:32:07.676Z,8.68
2018-11-29T01:33:07.652Z,8.64
2018-11-29T01:34:07.629Z,8.61
2018-11-29T01:35:07.606Z,8.61
2018-11-29T01:36:07.587Z,8.66
2018-11-29T01:37:07.558Z,8.64
2018-11-29T01:38:07.533Z,8.61
2018-11-29T01:39:07.510Z,8.71
2018-11-29T01:40:07.487Z,8.64
2018-11-29T01:41:07.467Z,8.61
2018-11-29T01:42:07.440Z,8.59
2018-11-29T01:43:07.421Z,8.64
2018-11-29T01:44:07.394Z,8.66
2018-11-29T01:45:07.371Z,8.68
2018-11-29T01:46:07.345Z,8.64
2018-11-29T01:47:07.323Z,8.68
2018-11-29T01:48:07.303Z,8.59
2018-11-29T01:49:07.276Z,8.68
2018-11-29T01:50:07.253Z,8.68
2018-11-29T01:51:07.230Z,8.63
2018-11-29T01:52:07.206Z,8.64
2018-11-29T01:53:07.184Z,8.63
2018-11-29T01:54:07.160Z,8.61
2018-11-29T01:55:07.137Z,8.63
2018-11-29T01:56:07.112Z,8.66
2018-11-29T01:57:07.090Z,8.71
2018-11-29T01:58:07.065Z,8.71
2018-11-29T01:59:07.042Z,8.74
2018-11-29T02:00:07.041Z,8.71
2018-11-29T02:01:07.011Z,8.63
2018-11-29T02:02:06.975Z,8.78
2018-11-29T02:03:06.949Z,8.66
2018-11-29T02:04:06.926Z,8.68
2018-11-29T02:05:06.907Z,8.77
2018-11-29T02:06:06.879Z,8.72
2018-11-29T02:07:06.856Z,8.78
2018-11-29T02:08:06.835Z,8.78
2018-11-29T02:09:06.811Z,8.78
2018-11-29T02:10:06.786Z,8.74
2018-11-29T02:11:06.766Z,8.64
2018-11-29T02:12:06.741Z,8.77
2018-11-29T02:13:06.740Z,8.79
2018-11-29T02:14:06.695Z,8.74
2018-11-29T02:15:06.670Z,8.69
2018-11-29T02:16:06.647Z,8.74
2018-11-29T02:17:06.625Z,8.82
2018-11-29T02:18:06.599Z,8.71
2018-11-29T02:19:06.578Z,8.71
2018-11-29T02:20:06.554Z,8.72
2018-11-29T02:21:06.535Z,8.74
2018-11-29T02:22:06.507Z,8.74
2018-11-29T02:23:06.486Z,8.72
2018-11-29T02:24:06.462Z,8.74
2018-11-29T02:25:06.438Z,8.86
2018-11-29T02:26:06.413Z,8.86
2018-11-29T02:27:06.389Z,8.79
2018-11-29T02:28:06.368Z,8.72
2018-11-29T02:29:06.344Z,8.78
2018-11-29T02:30:06.321Z,8.87
2018-11-29T02:31:06.299Z,8.89
2018-11-29T02:32:06.274Z,8.81
2018-11-29T02:33:06.251Z,8.84
2018-11-29T02:34:06.227Z,8.84
2018-11-29T02:35:06.203Z,8.90
2018-11-29T02:36:06.183Z,8.89
2018-11-29T02:37:06.158Z,8.84
2018-11-29T02:38:06.138Z,8.81
2018-11-29T02:39:06.111Z,8.84
2018-11-29T02:40:06.088Z,8.86
2018-11-29T02:41:06.065Z,8.86
2018-11-29T02:42:06.043Z,8.82
2018-11-29T02:43:06.020Z,8.81
2018-11-29T02:44:05.995Z,8.75
2018-11-29T02:45:05.972Z,8.82
2018-11-29T02:46:05.952Z,8.79
2018-11-29T02:47:05.929Z,8.89
2018-11-29T02:48:05.903Z,8.81
2018-11-29T02:49:05.880Z,8.89
2018-11-29T02:50:05.857Z,8.95
2018-11-29T02:51:05.834Z,8.89
2018-11-29T02:52:05.811Z,8.82
2018-11-29T02:53:05.787Z,8.79
2018-11-29T02:54:05.766Z,8.90
2018-11-29T02:55:05.741Z,8.79
2018-11-29T02:56:05.721Z,8.92
2018-11-29T02:57:05.693Z,8.93
2018-11-29T02:58:05.670Z,8.92
2018-11-29T02:59:05.648Z,8.95
2018-11-29T03:00:05.624Z,8.92
2018-11-29T03:01:05.609Z,8.90
2018-11-29T03:02:05.577Z,8.93
2018-11-29T03:03:05.554Z,8.95
2018-11-29T03:04:05.532Z,8.93
2018-11-29T03:05:05.509Z,8.90
2018-11-29T03:06:05.489Z,8.95
2018-11-29T03:07:05.463Z,8.97
2018-11-29T03:08:05.439Z,8.95
2018-11-29T03:09:05.420Z,8.95
2018-11-29T03:10:05.398Z,8.93
2018-11-29T03:11:05.370Z,8.93
2018-11-29T03:12:05.347Z,8.95
2018-11-29T03:13:05.326Z,8.96
2018-11-29T03:14:05.299Z,8.95
2018-11-29T03:15:05.276Z,8.96
2018-11-29T03:16:05.255Z,8.90
2018-11-29T03:17:05.231Z,8.90
2018-11-29T03:18:05.210Z,8.92
2018-11-29T03:19:05.184Z,8.93
2018-11-29T03:20:05.162Z,8.93
2018-11-29T03:21:05.138Z,8.92
2018-11-29T03:22:05.120Z,8.95
2018-11-29T03:23:05.093Z,8.99
2018-11-29T03:24:05.091Z,8.97
2018-11-29T03:25:05.049Z,8.96
2018-11-29T03:26:05.024Z,9.02
2018-11-29T03:27:05.001Z,8.95
2018-11-29T03:28:04.977Z,8.96
2018-11-29T03:29:04.958Z,8.96
2018-11-29T03:30:04.933Z,8.95
2018-11-29T03:31:04.911Z,8.97
2018-11-29T03:32:04.888Z,9.03
2018-11-29T03:33:04.865Z,9.02
2018-11-29T03:34:04.840Z,9.12
2018-11-29T03:35:04.818Z,9.08
2018-11-29T03:36:04.794Z,9.12
2018-11-29T03:37:04.769Z,9.15
2018-11-29T03:38:04.748Z,9.11
2018-11-29T03:39:04.724Z,9.15
2018-11-29T03:40:04.701Z,9.21
2018-11-29T03:41:04.679Z,9.19
2018-11-29T03:42:04.657Z,9.16
2018-11-29T03:43:04.631Z,9.19
2018-11-29T03:44:04.608Z,9.15
2018-11-29T03:45:04.588Z,9.16
2018-11-29T03:46:04.565Z,9.18
2018-11-29T03:47:04.539Z,9.21
2018-11-29T03:48:04.521Z,9.21
2018-11-29T03:49:04.496Z,9.16
2018-11-29T03:50:04.469Z,9.21
2018-11-29T03:51:04.447Z,9.15
2018-11-29T03:52:04.423Z,9.15
2018-11-29T03:53:04.401Z,9.19
2018-11-29T03:54:04.379Z,9.13
2018-11-29T03:55:04.355Z,9.18
2018-11-29T03:56:04.345Z,9.16
2018-11-29T03:57:04.309Z,9.15
2018-11-29T03:58:04.285Z,9.21
2018-11-29T03:59:04.266Z,9.27
2018-11-29T04:00:04.240Z,9.22
2018-11-29T04:01:04.223Z,9.27
2018-11-29T04:02:04.193Z,9.27
2018-11-29T04:03:04.171Z,9.24
2018-11-29T04:04:04.148Z,9.29
2018-11-29T04:05:04.132Z,9.29
2018-11-29T04:06:04.105Z,9.21
2018-11-29T04:07:04.080Z,9.21
2018-11-29T04:08:04.059Z,9.21
2018-11-29T04:09:04.036Z,9.19
2018-11-29T04:10:04.010Z,9.21
2018-11-29T04:11:03.988Z,9.26
2018-11-29T04:12:03.965Z,9.22
2018-11-29T04:13:03.948Z,9.18
2018-11-29T04:14:03.919Z,9.19
2018-11-29T04:15:03.896Z,9.30
2018-11-29T04:16:03.874Z,9.21
2018-11-29T04:17:03.851Z,9.33
2018-11-29T04:18:03.826Z,9.27
2018-11-29T04:19:03.802Z,9.39
2018-11-29T04:20:03.782Z,9.31
2018-11-29T04:21:03.757Z,9.30
2018-11-29T04:22:03.734Z,9.34
2018-11-29T04:23:03.712Z,9.34
2018-11-29T04:24:03.689Z,9.34
2018-11-29T04:25:03.675Z,9.34
2018-11-29T04:26:03.642Z,9.37
2018-11-29T04:27:03.623Z,9.42
2018-11-29T04:28:03.598Z,9.33
2018-11-29T04:29:03.587Z,9.33
2018-11-29T04:30:03.550Z,9.34
2018-11-29T04:31:03.528Z,9.39
2018-11-29T04:32:03.505Z,9.36
2018-11-29T04:33:03.485Z,9.39
2018-11-29T04:34:03.457Z,9.33
2018-11-29T04:35:03.437Z,9.34
2018-11-29T04:36:03.461Z,9.33
2018-11-29T04:37:03.417Z,9.42
2018-11-29T04:38:03.368Z,9.27
2018-11-29T04:39:03.343Z,9.36
2018-11-29T04:40:03.321Z,9.44
2018-11-29T04:41:03.297Z,9.31
2018-11-29T04:42:03.274Z,9.36
2018-11-29T04:43:03.251Z,9.40
2018-11-29T04:44:03.232Z,9.37
2018-11-29T04:45:03.208Z,9.39
2018-11-29T04:46:03.183Z,9.40
2018-11-29T04:47:03.161Z,9.37
2018-11-29T04:48:03.137Z,9.44
2018-11-29T04:49:03.115Z,9.37
2018-11-29T04:50:03.092Z,9.37
2018-11-29T04:51:03.068Z,9.36
2018-11-29T04:52:03.045Z,9.39
2018-11-29T04:53:03.026Z,9.45
2018-11-29T04:54:03.000Z,9.37
2018-11-29T04:55:02.977Z,9.37
2018-11-29T04:56:02.952Z,9.36
2018-11-29T04:57:02.933Z,9.34
2018-11-29T04:58:02.907Z,9.36
2018-11-29T04:59:02.890Z,9.36
2018-11-29T05:00:02.868Z,9.42
2018-11-29T05:01:02.843Z,9.33
2018-11-29T05:02:02.815Z,9.42
2018-11-29T05:03:02.793Z,9.39
2018-11-29T05:04:02.773Z,9.36
2018-11-29T05:05:02.753Z,9.42
2018-11-29T05:06:02.725Z,9.31
2018-11-29T05:07:02.703Z,9.39
2018-11-29T05:08:02.678Z,9.33
2018-11-29T05:09:02.656Z,9.45
2018-11-29T05:10:02.639Z,9.37
2018-11-29T05:11:02.608Z,9.31
2018-11-29T05:12:02.595Z,9.34
2018-11-29T05:13:02.566Z,9.36
2018-11-29T05:14:02.541Z,9.31
2018-11-29T05:15:02.517Z,9.37
2018-11-29T05:16:02.494Z,9.36
2018-11-29T05:17:02.472Z,9.44
2018-11-29T05:18:02.449Z,9.34
2018-11-29T05:19:02.429Z,9.31
2018-11-29T05:20:02.412Z,9.31
2018-11-29T05:21:02.381Z,9.39
2018-11-29T05:22:02.357Z,9.33
2018-11-29T05:23:02.334Z,9.37
2018-11-29T05:24:02.312Z,9.33
2018-11-29T05:25:02.291Z,9.34
2018-11-29T05:26:02.266Z,9.40
2018-11-29T05:27:02.243Z,9.39
2018-11-29T05:28:02.221Z,9.29
2018-11-29T05:29:02.206Z,9.40
2018-11-29T05:30:02.179Z,9.40
2018-11-29T05:31:02.151Z,9.36
2018-11-29T05:32:02.127Z,9.36
2018-11-29T05:33:02.106Z,9.34
2018-11-29T05:34:02.082Z,9.36
2018-11-29T05:35:02.060Z,9.39
2018-11-29T05:36:02.036Z,9.37
2018-11-29T05:37:02.012Z,9.34
2018-11-29T05:38:01.989Z,9.37
2018-11-29T05:39:01.968Z,9.36
2018-11-29T05:40:01.945Z,9.40
2018-11-29T05:41:01.944Z,9.36
2018-11-29T05:42:01.899Z,9.40
2018-11-29T05:43:01.887Z,9.33
2018-11-29T05:44:01.855Z,9.37
2018-11-29T05:45:01.831Z,9.45
2018-11-29T05:46:01.806Z,9.40
2018-11-29T05:47:01.788Z,9.37
2018-11-29T05:48:01.770Z,9.39
2018-11-29T05:49:01.750Z,9.40
2018-11-29T05:50:01.735Z,9.42
2018-11-29T05:51:01.697Z,9.40
2018-11-29T05:52:01.669Z,9.47
2018-11-29T05:53:01.648Z,9.45
2018-11-29T05:54:01.638Z,9.47
2018-11-29T05:55:01.600Z,9.44
2018-11-29T05:56:01.580Z,9.48
2018-11-29T05:57:01.555Z,9.45
2018-11-29T05:58:01.532Z,9.42
2018-11-29T05:59:01.511Z,9.44
2018-11-29T06:00:01.487Z,9.47
2018-11-29T06:01:01.464Z,9.48
2018-11-29T06:02:01.445Z,9.47
2018-11-29T06:03:01.425Z,9.52
2018-11-29T06:04:01.395Z,9.45
2018-11-29T06:05:01.374Z,9.48
2018-11-29T06:06:01.351Z,9.51
2018-11-29T06:07:01.327Z,9.39
2018-11-29T06:08:01.306Z,9.47
2018-11-29T06:09:01.282Z,9.44
2018-11-29T06:10:01.259Z,9.52
2018-11-29T06:11:01.235Z,9.52
2018-11-29T06:12:01.215Z,9.49
2018-11-29T06:13:01.193Z,9.44
2018-11-29T06:14:01.167Z,9.47
2018-11-29T06:15:01.146Z,9.44
2018-11-29T06:16:01.171Z,9.49
2018-11-29T06:17:01.100Z,9.49
2018-11-29T06:18:01.079Z,9.47
2018-11-29T06:19:01.053Z,9.47
2018-11-29T06:20:01.034Z,9.45
2018-11-29T06:21:01.008Z,9.56
2018-11-29T06:22:00.990Z,9.55
2018-11-29T06:23:00.964Z,9.58
2018-11-29T06:24:00.943Z,9.51
2018-11-29T06:25:00.917Z,9.51
2018-11-29T06:26:00.893Z,9.56
2018-11-29T06:27:00.872Z,9.56
2018-11-29T06:28:00.848Z,9.58
2018-11-29T06:29:00.826Z,9.56
2018-11-29T06:30:00.803Z,9.59
2018-11-29T06:31:00.781Z,9.59
2018-11-29T06:32:00.756Z,9.63
2018-11-29T06:33:00.735Z,9.69
2018-11-29T06:34:00.714Z,9.63
2018-11-29T06:35:00.691Z,9.62
2018-11-29T06:36:02.145Z,9.67
2018-11-29T06:37:00.644Z,9.64
2018-11-29T06:38:00.620Z,9.64
2018-11-29T06:39:00.598Z,9.70
2018-11-29T06:40:00.575Z,9.66
2018-11-29T06:41:00.563Z,9.66
2018-11-29T06:42:00.529Z,9.67
2018-11-29T06:43:00.507Z,9.64
2018-11-29T06:44:00.491Z,9.66
2018-11-29T06:45:00.460Z,9.67
2018-11-29T06:46:00.466Z,9.70
2018-11-29T06:47:00.424Z,9.67
2018-11-29T06:48:00.396Z,9.64
2018-11-29T06:49:00.371Z,9.69
2018-11-29T06:50:00.367Z,9.63
2018-11-29T06:51:00.324Z,9.67
2018-11-29T06:52:00.309Z,9.63
2018-11-29T06:53:00.280Z,9.66
2018-11-29T06:54:00.257Z,9.64
2018-11-29T06:55:00.233Z,9.66
2018-11-29T06:56:00.214Z,9.59
2018-11-29T06:57:00.188Z,9.62
2018-11-29T06:58:00.165Z,9.63
2018-11-29T06:59:00.143Z,9.49
2018-11-29T07:00:00.121Z,9.55
2018-11-29T07:01:00.101Z,9.55
2018-11-29T07:02:00.077Z,9.62
2018-11-29T07:03:00.054Z,9.56
2018-11-29T07:04:00.031Z,9.59
2018-11-29T07:05:00.007Z,9.63
2018-11-29T07:06:00.001Z,9.55
2018-11-29T07:06:59.961Z,9.63
2018-11-29T07:07:59.944Z,9.58
2018-11-29T07:08:59.916Z,9.52
2018-11-29T07:09:59.892Z,9.55
2018-11-29T07:10:59.887Z,9.52
2018-11-29T07:11:59.847Z,9.51
2018-11-29T07:12:59.827Z,9.63
2018-11-29T07:13:59.804Z,9.51
2018-11-29T07:14:59.781Z,9.52
2018-11-29T07:15:59.759Z,9.66
2018-11-29T07:16:59.735Z,9.56
2018-11-29T07:17:59.715Z,9.63
2018-11-29T07:18:59.689Z,9.64
2018-11-29T07:19:59.674Z,9.66
2018-11-29T07:20:59.644Z,9.51
2018-11-29T07:21:59.622Z,9.63
2018-11-29T07:22:59.599Z,9.66
2018-11-29T07:23:59.577Z,9.63
2018-11-29T07:24:59.561Z,9.66
2018-11-29T07:25:59.530Z,9.66
2018-11-29T07:26:59.510Z,9.59
2018-11-29T07:27:59.488Z,9.66
2018-11-29T07:28:59.463Z,9.64
2018-11-29T07:29:59.440Z,9.56
2018-11-29T07:30:59.417Z,9.63
2018-11-29T07:31:59.396Z,9.69
2018-11-29T07:32:59.373Z,9.63
2018-11-29T07:33:59.358Z,9.66
2018-11-29T07:34:59.327Z,9.66
2018-11-29T07:35:59.308Z,9.55
2018-11-29T07:36:59.283Z,9.59
2018-11-29T07:37:59.258Z,9.67
2018-11-29T07:38:59.236Z,9.66
2018-11-29T07:39:59.214Z,9.66
2018-11-29T07:40:59.198Z,9.58
2018-11-29T07:41:59.173Z,9.59
2018-11-29T07:42:59.146Z,9.52
2018-11-29T07:43:59.125Z,9.59
2018-11-29T07:44:59.101Z,9.55
2018-11-29T07:45:59.079Z,9.55
2018-11-29T07:46:59.055Z,9.63
2018-11-29T07:47:59.038Z,9.63
2018-11-29T07:48:59.012Z,9.54
2018-11-29T07:49:58.988Z,9.49
2018-11-29T07:50:58.968Z,9.66
2018-11-29T07:51:58.947Z,9.66
2018-11-29T07:52:58.922Z,9.67
2018-11-29T07:53:58.896Z,9.62
2018-11-29T07:54:58.874Z,9.67
2018-11-29T07:55:58.855Z,9.66
2018-11-29T07:56:58.830Z,9.66
2018-11-29T07:57:58.808Z,9.62
2018-11-29T07:58:58.789Z,9.64
2018-11-29T07:59:58.763Z,9.64
2018-11-29T08:00:58.741Z,9.62
2018-11-29T08:01:58.719Z,9.66
2018-11-29T08:02:58.694Z,9.67
2018-11-29T08:03:58.673Z,9.67
2018-11-29T08:04:58.651Z,9.72
2018-11-29T08:05:58.653Z,9.63
2018-11-29T08:06:58.605Z,9.69
2018-11-29T08:07:58.584Z,9.67
2018-11-29T08:08:58.560Z,9.70
2018-11-29T08:09:58.537Z,9.70
2018-11-29T08:10:58.517Z,9.67
2018-11-29T08:11:58.494Z,9.73
2018-11-29T08:12:58.488Z,9.64
2018-11-29T08:13:58.447Z,9.69
2018-11-29T08:14:58.426Z,9.64
2018-11-29T08:15:58.403Z,9.72
2018-11-29T08:16:58.382Z,9.64
2018-11-29T08:17:58.368Z,9.64
2018-11-29T08:18:58.336Z,9.69
2018-11-29T08:19:58.319Z,9.66
2018-11-29T08:20:58.292Z,9.72
2018-11-29T08:21:58.268Z,9.70
2018-11-29T08:22:58.247Z,9.70
2018-11-29T08:23:58.228Z,9.66
2018-11-29T08:24:58.206Z,9.73
2018-11-29T08:25:58.179Z,9.72
2018-11-29T08:26:58.166Z,9.66
2018-11-29T08:27:58.134Z,9.70
2018-11-29T08:28:58.112Z,9.70
2018-11-29T08:29:58.088Z,9.74
2018-11-29T08:30:58.069Z,9.69
2018-11-29T08:31:58.046Z,9.70
2018-11-29T08:32:58.027Z,9.70
2018-11-29T08:33:58.002Z,9.76
2018-11-29T08:34:57.979Z,9.74
2018-11-29T08:35:57.956Z,9.81
2018-11-29T08:36:57.935Z,9.76
2018-11-29T08:37:57.942Z,9.77
2018-11-29T08:38:57.893Z,9.80
2018-11-29T08:39:57.869Z,9.73
2018-11-29T08:40:57.847Z,9.81
2018-11-29T08:41:57.823Z,9.82
2018-11-29T08:42:57.799Z,9.82
2018-11-29T08:43:57.777Z,9.84
2018-11-29T08:44:57.756Z,9.84
2018-11-29T08:45:57.733Z,9.87
2018-11-29T08:46:57.711Z,9.88
2018-11-29T08:47:57.696Z,9.87
2018-11-29T08:48:57.667Z,9.88
2018-11-29T08:49:57.643Z,9.90
2018-11-29T08:50:57.622Z,9.91
2018-11-29T08:51:57.602Z,9.91
2018-11-29T08:52:57.578Z,9.94
2018-11-29T08:53:57.554Z,9.91
2018-11-29T08:54:57.534Z,9.94
2018-11-29T08:55:57.510Z,9.91
2018-11-29T08:56:57.490Z,9.88
2018-11-29T08:57:57.467Z,9.88
2018-11-29T08:58:57.445Z,9.92
2018-11-29T08:59:57.420Z,9.97
2018-11-29T09:00:57.398Z,10.02
2018-11-29T09:01:57.376Z,9.85
2018-11-29T09:02:57.353Z,9.97
2018-11-29T09:03:57.331Z,9.97
2018-11-29T09:04:57.309Z,9.99
2018-11-29T09:05:57.286Z,9.97
2018-11-29T09:06:57.499Z,10.00
2018-11-29T09:07:57.246Z,9.97
2018-11-29T09:08:57.389Z,10.07
2018-11-29T09:09:57.198Z,10.00
2018-11-29T09:10:57.178Z,10.03
2018-11-29T09:11:57.156Z,10.03
2018-11-29T09:12:57.144Z,10.03
2018-11-29T09:13:57.108Z,10.03
2018-11-29T09:14:57.087Z,10.09
2018-11-29T09:15:57.064Z,10.02
2018-11-29T09:16:57.042Z,10.06
2018-11-29T09:17:57.021Z,10.07
2018-11-29T09:18:56.999Z,10.03
2018-11-29T09:19:56.977Z,9.99
2018-11-29T09:20:56.954Z,10.06
2018-11-29T09:21:56.934Z,10.00
2018-11-29T09:22:56.913Z,10.03
2018-11-29T09:23:56.899Z,9.99
2018-11-29T09:24:56.866Z,10.03
2018-11-29T09:25:56.845Z,10.07
2018-11-29T09:26:56.824Z,10.07
2018-11-29T09:27:56.800Z,10.00
2018-11-29T09:28:56.778Z,10.06
2018-11-29T09:29:56.756Z,10.03
2018-11-29T09:30:56.734Z,10.00
2018-11-29T09:31:56.712Z,9.95
2018-11-29T09:32:56.693Z,10.00
2018-11-29T09:33:56.671Z,9.99
2018-11-29T09:34:56.644Z,9.99
2018-11-29T09:35:56.624Z,10.09
2018-11-29T09:36:56.600Z,9.99
2018-11-29T09:37:56.579Z,10.03
2018-11-29T09:38:56.557Z,10.00
2018-11-29T09:39:56.534Z,10.03
2018-11-29T09:40:56.513Z,10.03
2018-11-29T09:41:56.492Z,10.07
2018-11-29T09:42:56.472Z,10.00
2018-11-29T09:43:56.451Z,9.97
2018-11-29T09:44:56.425Z,10.09
2018-11-29T09:45:56.420Z,10.02
2018-11-29T09:46:56.381Z,9.95
2018-11-29T09:47:56.363Z,10.07
2018-11-29T09:48:56.335Z,10.00
2018-11-29T09:49:56.317Z,10.02
2018-11-29T09:50:56.290Z,10.03
2018-11-29T09:51:56.270Z,10.00
2018-11-29T09:52:56.246Z,10.05
2018-11-29T09:53:56.229Z,10.10
2018-11-29T09:54:56.202Z,10.18
2018-11-29T09:55:56.181Z,10.18
2018-11-29T09:56:56.158Z,10.20
2018-11-29T09:57:56.137Z,10.17
2018-11-29T09:58:56.113Z,10.15
2018-11-29T09:59:56.092Z,10.21
2018-11-29T10:00:56.071Z,10.17
2018-11-29T10:01:56.048Z,10.12
2018-11-29T10:02:56.025Z,10.21
2018-11-29T10:03:56.004Z,10.23
2018-11-29T10:04:55.988Z,10.27
2018-11-29T10:05:55.959Z,10.25
2018-11-29T10:06:55.938Z,10.33
2018-11-29T10:07:55.915Z,10.25
2018-11-29T10:08:55.894Z,10.21
2018-11-29T10:09:55.871Z,10.36
2018-11-29T10:10:55.850Z,10.24
2018-11-29T10:11:55.828Z,10.28
2018-11-29T10:12:55.806Z,10.23
2018-11-29T10:13:55.789Z,10.28
2018-11-29T10:14:55.767Z,10.33
2018-11-29T10:15:55.740Z,10.24
2018-11-29T10:16:55.720Z,10.31
2018-11-29T10:17:55.695Z,10.33
2018-11-29T10:18:55.675Z,10.30
2018-11-29T10:19:55.653Z,10.31
2018-11-29T10:20:55.632Z,10.31
2018-11-29T10:21:55.610Z,10.36
2018-11-29T10:22:55.589Z,10.45
2018-11-29T10:23:55.566Z,10.42
2018-11-29T10:24:55.548Z,10.36
2018-11-29T10:25:55.523Z,10.41
2018-11-29T10:26:55.499Z,10.43
2018-11-29T10:27:55.480Z,10.43
2018-11-29T10:28:55.457Z,10.39
2018-11-29T10:29:55.434Z,10.42
2018-11-29T10:30:55.412Z,10.45
2018-11-29T10:31:55.392Z,10.45
2018-11-29T10:32:55.373Z,10.39
2018-11-29T10:33:55.347Z,10.42
2018-11-29T10:34:55.326Z,10.49
2018-11-29T10:35:58.861Z,10.43
2018-11-29T10:36:55.282Z,10.49
2018-11-29T10:37:55.263Z,10.61
2018-11-29T10:38:55.240Z,10.43
2018-11-29T10:39:55.216Z,10.49
2018-11-29T10:40:55.199Z,10.61
2018-11-29T10:41:55.175Z,10.51
2018-11-29T10:42:55.152Z,10.51
2018-11-29T10:43:55.131Z,10.53
2018-11-29T10:44:55.110Z,10.53
2018-11-29T10:45:55.085Z,10.62
2018-11-29T10:46:55.065Z,10.59
2018-11-29T10:47:55.048Z,10.61
2018-11-29T10:48:55.022Z,10.59
2018-11-29T10:49:54.998Z,10.55
2018-11-29T10:50:54.981Z,10.61
2018-11-29T10:51:54.957Z,10.62
2018-11-29T10:52:54.935Z,10.71
2018-11-29T10:53:54.916Z,10.62
2018-11-29T10:54:54.890Z,10.69
2018-11-29T10:55:54.869Z,10.68
2018-11-29T10:56:54.847Z,10.77
2018-11-29T10:57:54.827Z,10.67
2018-11-29T10:58:54.804Z,10.76
2018-11-29T10:59:54.782Z,10.67
2018-11-29T11:00:54.760Z,10.69
2018-11-29T11:01:54.770Z,10.71
2018-11-29T11:02:54.719Z,10.71
2018-11-29T11:03:54.707Z,10.71
2018-11-29T11:04:54.684Z,10.80
2018-11-29T11:05:54.650Z,10.77
2018-11-29T11:06:54.629Z,10.83
2018-11-29T11:07:54.607Z,10.86
2018-11-29T11:08:54.590Z,10.79
2018-11-29T11:09:54.563Z,10.83
2018-11-29T11:10:54.544Z,10.87
2018-11-29T11:11:54.523Z,10.84
2018-11-29T11:12:54.499Z,10.87
2018-11-29T11:13:54.476Z,10.94
2018-11-29T11:14:54.456Z,10.94
2018-11-29T11:15:54.434Z,10.95
2018-11-29T11:16:54.413Z,10.87
2018-11-29T11:17:54.389Z,10.92
2018-11-29T11:18:54.370Z,10.94
2018-11-29T11:19:54.347Z,10.94
2018-11-29T11:20:54.326Z,11.01
2018-11-29T11:21:54.303Z,10.94
2018-11-29T11:22:54.283Z,10.97
2018-11-29T11:23:59.342Z,10.98
2018-11-29T11:24:54.239Z,10.98
2018-11-29T11:25:54.216Z,11.01
2018-11-29T11:26:54.197Z,10.92
2018-11-29T11:27:54.174Z,11.07
2018-11-29T11:28:54.152Z,11.00
2018-11-29T11:29:54.131Z,11.04
2018-11-29T11:30:54.110Z,11.05
2018-11-29T11:31:54.090Z,11.07
2018-11-29T11:32:54.067Z,11.13
2018-11-29T11:33:54.054Z,11.19
2018-11-29T11:34:54.025Z,11.25
2018-11-29T11:35:54.002Z,11.34
2018-11-29T11:36:53.982Z,11.30
2018-11-29T11:37:53.960Z,11.35
2018-11-29T11:38:53.937Z,11.37
2018-11-29T11:39:53.920Z,11.38
2018-11-29T11:40:53.897Z,11.41
2018-11-29T11:41:53.885Z,11.48
2018-11-29T11:42:53.856Z,11.55
2018-11-29T11:43:53.832Z,11.49
2018-11-29T11:44:53.811Z,11.52
2018-11-29T11:45:53.788Z,11.49
2018-11-29T11:46:53.776Z,11.52
2018-11-29T11:47:53.744Z,11.59
2018-11-29T11:48:53.723Z,11.60
2018-11-29T11:49:53.702Z,11.63
2018-11-29T11:50:53.681Z,11.65
2018-11-29T11:51:53.661Z,11.67
2018-11-29T11:52:53.643Z,11.70
2018-11-29T11:53:53.638Z,11.76
2018-11-29T11:54:53.601Z,11.77
2018-11-29T11:55:54.106Z,11.71
2018-11-29T11:56:53.563Z,11.81
2018-11-29T11:57:53.535Z,11.81
2018-11-29T11:58:53.509Z,11.78
2018-11-29T11:59:53.492Z,11.77
2018-11-29T12:00:53.467Z,11.85
2018-11-29T12:01:53.444Z,11.86
2018-11-29T12:02:53.426Z,11.73
2018-11-29T12:03:53.404Z,11.81
2018-11-29T12:04:53.382Z,11.76
2018-11-29T12:05:53.360Z,11.85
2018-11-29T12:06:53.342Z,11.74
2018-11-29T12:07:53.322Z,11.74
2018-11-29T12:08:53.297Z,11.74
2018-11-29T12:09:53.276Z,11.76
2018-11-29T12:10:53.254Z,11.70
2018-11-29T12:11:53.276Z,11.68
2018-11-29T12:12:53.214Z,11.71
2018-11-29T12:13:53.192Z,11.73
2018-11-29T12:14:53.172Z,11.68
2018-11-29T12:15:53.148Z,11.65
2018-11-29T12:16:53.130Z,11.63
2018-11-29T12:17:53.173Z,11.63
2018-11-29T12:18:53.085Z,11.73
2018-11-29T12:19:53.064Z,11.70
2018-11-29T12:20:53.042Z,11.70
2018-11-29T12:21:53.030Z,11.67
2018-11-29T12:22:53.003Z,11.67
2018-11-29T12:23:52.983Z,11.67
2018-11-29T12:24:52.961Z,11.67
2018-11-29T12:25:53.015Z,11.73
2018-11-29T12:26:52.919Z,11.67
2018-11-29T12:27:52.897Z,11.70
2018-11-29T12:28:52.915Z,11.67
2018-11-29T12:29:52.857Z,11.70
2018-11-29T12:30:52.894Z,11.70
2018-11-29T12:31:52.810Z,11.76
2018-11-29T12:32:52.900Z,11.71
2018-11-29T12:33:52.769Z,11.67
2018-11-29T12:34:52.789Z,11.65
2018-11-29T12:35:52.726Z,11.67
2018-11-29T12:36:52.707Z,11.73
2018-11-29T12:37:53.305Z,11.55
2018-11-29T12:38:52.664Z,11.58
2018-11-29T12:39:52.641Z,11.60
2018-11-29T12:40:52.622Z,11.59
2018-11-29T12:41:52.599Z,11.60
2018-11-29T12:42:52.579Z,11.60
2018-11-29T12:43:52.557Z,11.58
2018-11-29T12:44:52.537Z,11.55
2018-11-29T12:45:52.515Z,11.55
2018-11-29T12:46:52.494Z,11.59
2018-11-29T12:47:52.477Z,11.53
2018-11-29T12:48:52.451Z,11.58
2018-11-29T12:49:52.430Z,11.56
2018-11-29T12:50:52.409Z,11.55
2018-11-29T12:51:52.389Z,11.53
2018-11-29T12:52:52.370Z,11.53
2018-11-29T12:53:52.347Z,11.51
2018-11-29T12:54:52.329Z,11.53
2018-11-29T12:55:52.310Z,11.45
2018-11-29T12:56:52.283Z,11.45
2018-11-29T12:58:04.665Z,11.44
2018-11-29T12:58:52.240Z,11.35
2018-11-29T12:59:52.219Z,11.49
2018-11-29T13:00:52.200Z,11.45
2018-11-29T13:01:52.176Z,11.43
2018-11-29T13:02:52.161Z,11.41
2018-11-29T13:03:52.134Z,11.35
2018-11-29T13:04:52.114Z,11.40
2018-11-29T13:05:52.092Z,11.40
2018-11-29T13:06:52.072Z,11.34
2018-11-29T13:07:52.098Z,11.34
2018-11-29T13:08:52.031Z,11.37
2018-11-29T13:09:52.007Z,11.31